sensor_id;sensor_type;location;lat;lon;timestamp;temperature;humidity
27645;DHT22;15054;57.152;-2.118;2022-09-25T00:01:12;9.50;99.90
27645;DHT22;15054;57.152;-2.118;2022-09-25T00:03:40;9.50;99.90
27645;DHT22;15054;57.152;-2.118;2022-09-25T00:08:40;9.50;99.90
27645;DHT22;15054;57.152;-2.118;2022-09-25T00:11:13;9.50;99.90
27645;DHT22;15054;57.152;-2.118;2022-09-25T00:13:42;9.50;99.90
27645;DHT22;15054;57.152;-2.118;2022-09-25T00:16:11;9.50;99.90
27645;DHT22;15054;57.152;-2.118;2022-09-25T00:18:39;9.40;99.90
27645;DHT22;15054;57.152;-2.118;2022-09-25T00:21:25;9.40;99.90
27645;DHT22;15054;57.152;-2.118;2022-09-25T00:24:03;9.40;99.90
27645;DHT22;15054;57.152;-2.118;2022-09-25T00:26:32;9.30;99.90
27645;DHT22;15054;57.152;-2.118;2022-09-25T00:29:00;9.20;99.90
27645;DHT22;15054;57.152;-2.118;2022-09-25T00:31:28;9.20;99.90
27645;DHT22;15054;57.152;-2.118;2022-09-25T00:33:58;9.10;99.90
27645;DHT22;15054;57.152;-2.118;2022-09-25T00:36:26;9.10;99.90
27645;DHT22;15054;57.152;-2.118;2022-09-25T00:38:53;9.00;99.90
27645;DHT22;15054;57.152;-2.118;2022-09-25T00:41:22;9.00;99.90
27645;DHT22;15054;57.152;-2.118;2022-09-25T00:43:52;9.00;99.90
27645;DHT22;15054;57.152;-2.118;2022-09-25T00:46:53;9.00;99.90
27645;DHT22;15054;57.152;-2.118;2022-09-25T00:49:25;9.10;99.90
27645;DHT22;15054;57.152;-2.118;2022-09-25T00:52:06;9.20;99.90
27645;DHT22;15054;57.152;-2.118;2022-09-25T00:54:48;9.20;99.90
27645;DHT22;15054;57.152;-2.118;2022-09-25T00:57:20;9.20;99.90
27645;DHT22;15054;57.152;-2.118;2022-09-25T00:59:50;9.30;99.90
27645;DHT22;15054;57.152;-2.118;2022-09-25T01:02:40;9.30;99.90
27645;DHT22;15054;57.152;-2.118;2022-09-25T01:05:15;9.30;99.90
27645;DHT22;15054;57.152;-2.118;2022-09-25T01:07:46;9.30;99.90
27645;DHT22;15054;57.152;-2.118;2022-09-25T01:10:16;9.40;99.90
27645;DHT22;15054;57.152;-2.118;2022-09-25T01:12:45;9.40;99.90
27645;DHT22;15054;57.152;-2.118;2022-09-25T01:15:17;9.40;99.90
27645;DHT22;15054;57.152;-2.118;2022-09-25T01:20:35;9.50;99.90
27645;DHT22;15054;57.152;-2.118;2022-09-25T01:34:27;9.60;99.90
27645;DHT22;15054;57.152;-2.118;2022-09-25T01:39:36;9.70;99.90
27645;DHT22;15054;57.152;-2.118;2022-09-25T01:42:10;9.70;99.90
27645;DHT22;15054;57.152;-2.118;2022-09-25T01:44:43;9.70;99.90
27645;DHT22;15054;57.152;-2.118;2022-09-25T01:47:16;9.70;99.90
27645;DHT22;15054;57.152;-2.118;2022-09-25T01:49:48;9.60;99.90
27645;DHT22;15054;57.152;-2.118;2022-09-25T01:52:20;9.60;99.90
27645;DHT22;15054;57.152;-2.118;2022-09-25T01:54:52;9.60;99.90
27645;DHT22;15054;57.152;-2.118;2022-09-25T01:57:35;9.60;99.90
27645;DHT22;15054;57.152;-2.118;2022-09-25T02:00:07;9.60;99.90
27645;DHT22;15054;57.152;-2.118;2022-09-25T02:02:53;9.60;99.90
27645;DHT22;15054;57.152;-2.118;2022-09-25T02:05:32;9.60;99.90
27645;DHT22;15054;57.152;-2.118;2022-09-25T02:08:16;9.60;99.90
27645;DHT22;15054;57.152;-2.118;2022-09-25T02:10:48;9.60;99.90
27645;DHT22;15054;57.152;-2.118;2022-09-25T02:13:20;9.70;99.90
27645;DHT22;15054;57.152;-2.118;2022-09-25T02:15:53;9.60;99.90
27645;DHT22;15054;57.152;-2.118;2022-09-25T02:18:23;9.70;99.90
27645;DHT22;15054;57.152;-2.118;2022-09-25T02:24:05;9.60;99.90
27645;DHT22;15054;57.152;-2.118;2022-09-25T02:26:34;9.70;99.90
27645;DHT22;15054;57.152;-2.118;2022-09-25T02:29:01;9.70;99.90
27645;DHT22;15054;57.152;-2.118;2022-09-25T02:31:39;9.60;99.90
27645;DHT22;15054;57.152;-2.118;2022-09-25T02:34:07;9.60;99.90
27645;DHT22;15054;57.152;-2.118;2022-09-25T02:36:41;9.60;99.90
27645;DHT22;15054;57.152;-2.118;2022-09-25T02:39:09;9.60;99.90
27645;DHT22;15054;57.152;-2.118;2022-09-25T02:42:00;9.60;99.90
27645;DHT22;15054;57.152;-2.118;2022-09-25T02:52:49;9.50;99.90
27645;DHT22;15054;57.152;-2.118;2022-09-25T02:55:52;9.50;99.90
27645;DHT22;15054;57.152;-2.118;2022-09-25T02:58:28;9.50;99.90
27645;DHT22;15054;57.152;-2.118;2022-09-25T03:00:59;9.50;99.90
27645;DHT22;15054;57.152;-2.118;2022-09-25T03:03:28;9.60;99.90
27645;DHT22;15054;57.152;-2.118;2022-09-25T03:05:57;9.60;99.90
27645;DHT22;15054;57.152;-2.118;2022-09-25T03:08:26;9.60;99.90
27645;DHT22;15054;57.152;-2.118;2022-09-25T03:11:16;9.60;99.90
27645;DHT22;15054;57.152;-2.118;2022-09-25T03:13:43;9.60;99.90
27645;DHT22;15054;57.152;-2.118;2022-09-25T03:18:45;9.60;99.90
27645;DHT22;15054;57.152;-2.118;2022-09-25T03:21:13;9.60;99.90
27645;DHT22;15054;57.152;-2.118;2022-09-25T03:23:40;9.60;99.90
27645;DHT22;15054;57.152;-2.118;2022-09-25T03:26:07;9.60;99.90
27645;DHT22;15054;57.152;-2.118;2022-09-25T03:28:34;9.60;99.90
27645;DHT22;15054;57.152;-2.118;2022-09-25T03:31:05;9.60;99.90
27645;DHT22;15054;57.152;-2.118;2022-09-25T03:33:35;9.60;99.90
27645;DHT22;15054;57.152;-2.118;2022-09-25T03:36:16;9.60;99.90
27645;DHT22;15054;57.152;-2.118;2022-09-25T03:38:46;9.60;99.90
27645;DHT22;15054;57.152;-2.118;2022-09-25T03:41:20;9.60;99.90
27645;DHT22;15054;57.152;-2.118;2022-09-25T03:43:48;9.60;99.90
27645;DHT22;15054;57.152;-2.118;2022-09-25T03:46:37;9.60;99.90
27645;DHT22;15054;57.152;-2.118;2022-09-25T03:49:04;9.60;99.90
27645;DHT22;15054;57.152;-2.118;2022-09-25T03:51:32;9.60;99.90
27645;DHT22;15054;57.152;-2.118;2022-09-25T03:53:59;9.50;99.90
27645;DHT22;15054;57.152;-2.118;2022-09-25T03:56:27;9.50;99.90
27645;DHT22;15054;57.152;-2.118;2022-09-25T03:58:56;9.50;99.90
27645;DHT22;15054;57.152;-2.118;2022-09-25T04:01:24;9.40;99.90
27645;DHT22;15054;57.152;-2.118;2022-09-25T04:03:52;9.40;99.90
27645;DHT22;15054;57.152;-2.118;2022-09-25T04:06:22;9.40;99.90
27645;DHT22;15054;57.152;-2.118;2022-09-25T04:08:51;9.40;99.90
27645;DHT22;15054;57.152;-2.118;2022-09-25T04:11:20;9.40;99.90
27645;DHT22;15054;57.152;-2.118;2022-09-25T04:13:48;9.40;99.90
27645;DHT22;15054;57.152;-2.118;2022-09-25T04:16:15;9.40;99.90
27645;DHT22;15054;57.152;-2.118;2022-09-25T04:18:43;9.50;99.90
27645;DHT22;15054;57.152;-2.118;2022-09-25T04:21:12;9.50;99.90
27645;DHT22;15054;57.152;-2.118;2022-09-25T04:23:39;9.50;99.90
27645;DHT22;15054;57.152;-2.118;2022-09-25T04:26:08;9.50;99.90
27645;DHT22;15054;57.152;-2.118;2022-09-25T04:28:35;9.50;99.90
27645;DHT22;15054;57.152;-2.118;2022-09-25T04:31:03;9.50;99.90
27645;DHT22;15054;57.152;-2.118;2022-09-25T04:33:30;9.60;99.90
27645;DHT22;15054;57.152;-2.118;2022-09-25T04:36:15;9.50;99.90
27645;DHT22;15054;57.152;-2.118;2022-09-25T04:38:42;9.60;99.90
27645;DHT22;15054;57.152;-2.118;2022-09-25T04:41:10;9.60;99.90
27645;DHT22;15054;57.152;-2.118;2022-09-25T04:43:37;9.60;99.90
27645;DHT22;15054;57.152;-2.118;2022-09-25T04:46:09;9.60;99.90
27645;DHT22;15054;57.152;-2.118;2022-09-25T04:48:45;9.60;99.90
27645;DHT22;15054;57.152;-2.118;2022-09-25T04:51:13;9.50;99.90
27645;DHT22;15054;57.152;-2.118;2022-09-25T04:53:40;9.50;99.90
27645;DHT22;15054;57.152;-2.118;2022-09-25T04:56:08;9.60;99.90
27645;DHT22;15054;57.152;-2.118;2022-09-25T04:58:48;9.60;99.90
27645;DHT22;15054;57.152;-2.118;2022-09-25T05:01:18;9.60;99.90
27645;DHT22;15054;57.152;-2.118;2022-09-25T05:03:50;9.60;99.90
27645;DHT22;15054;57.152;-2.118;2022-09-25T05:06:20;9.60;99.90
27645;DHT22;15054;57.152;-2.118;2022-09-25T05:08:48;9.50;99.90
27645;DHT22;15054;57.152;-2.118;2022-09-25T05:11:15;9.60;99.90
27645;DHT22;15054;57.152;-2.118;2022-09-25T05:13:42;9.50;99.90
27645;DHT22;15054;57.152;-2.118;2022-09-25T05:16:12;9.50;99.90
27645;DHT22;15054;57.152;-2.118;2022-09-25T05:18:40;9.50;99.90
27645;DHT22;15054;57.152;-2.118;2022-09-25T05:21:07;9.50;99.90
27645;DHT22;15054;57.152;-2.118;2022-09-25T05:23:34;9.50;99.90
27645;DHT22;15054;57.152;-2.118;2022-09-25T05:26:01;9.50;99.90
27645;DHT22;15054;57.152;-2.118;2022-09-25T05:28:29;9.40;99.90
27645;DHT22;15054;57.152;-2.118;2022-09-25T05:31:01;9.40;99.90
27645;DHT22;15054;57.152;-2.118;2022-09-25T05:33:32;9.40;99.90
27645;DHT22;15054;57.152;-2.118;2022-09-25T05:36:04;9.50;99.90
27645;DHT22;15054;57.152;-2.118;2022-09-25T05:38:33;9.50;99.90
27645;DHT22;15054;57.152;-2.118;2022-09-25T05:41:08;9.50;99.90
27645;DHT22;15054;57.152;-2.118;2022-09-25T05:43:40;9.60;99.90
27645;DHT22;15054;57.152;-2.118;2022-09-25T05:46:08;9.60;99.90
27645;DHT22;15054;57.152;-2.118;2022-09-25T05:48:36;9.60;99.90
27645;DHT22;15054;57.152;-2.118;2022-09-25T05:51:04;9.60;99.90
27645;DHT22;15054;57.152;-2.118;2022-09-25T05:53:31;9.60;99.90
27645;DHT22;15054;57.152;-2.118;2022-09-25T05:56:00;9.60;99.90
27645;DHT22;15054;57.152;-2.118;2022-09-25T05:58:29;9.70;99.90
27645;DHT22;15054;57.152;-2.118;2022-09-25T06:01:02;9.70;99.90
27645;DHT22;15054;57.152;-2.118;2022-09-25T06:03:30;9.70;99.90
27645;DHT22;15054;57.152;-2.118;2022-09-25T06:05:58;9.70;99.90
27645;DHT22;15054;57.152;-2.118;2022-09-25T06:08:26;9.70;99.90
27645;DHT22;15054;57.152;-2.118;2022-09-25T06:10:58;9.70;99.90
27645;DHT22;15054;57.152;-2.118;2022-09-25T06:13:28;9.70;99.90
27645;DHT22;15054;57.152;-2.118;2022-09-25T06:15:57;9.70;99.90
27645;DHT22;15054;57.152;-2.118;2022-09-25T06:18:24;9.80;99.90
27645;DHT22;15054;57.152;-2.118;2022-09-25T06:20:58;9.80;99.90
27645;DHT22;15054;57.152;-2.118;2022-09-25T06:23:26;9.80;99.90
27645;DHT22;15054;57.152;-2.118;2022-09-25T06:25:53;9.80;99.90
27645;DHT22;15054;57.152;-2.118;2022-09-25T06:28:20;9.80;99.90
27645;DHT22;15054;57.152;-2.118;2022-09-25T06:30:47;9.80;99.90
27645;DHT22;15054;57.152;-2.118;2022-09-25T06:33:14;9.90;99.90
27645;DHT22;15054;57.152;-2.118;2022-09-25T06:35:46;9.90;99.90
27645;DHT22;15054;57.152;-2.118;2022-09-25T06:38:14;9.90;99.90
27645;DHT22;15054;57.152;-2.118;2022-09-25T06:40:42;9.90;99.90
27645;DHT22;15054;57.152;-2.118;2022-09-25T06:43:15;9.90;99.90
27645;DHT22;15054;57.152;-2.118;2022-09-25T06:45:42;9.90;99.90
27645;DHT22;15054;57.152;-2.118;2022-09-25T06:48:13;10.00;99.90
27645;DHT22;15054;57.152;-2.118;2022-09-25T06:53:13;10.00;99.90
27645;DHT22;15054;57.152;-2.118;2022-09-25T06:55:41;10.00;99.90
27645;DHT22;15054;57.152;-2.118;2022-09-25T06:58:21;10.00;99.90
27645;DHT22;15054;57.152;-2.118;2022-09-25T07:00:50;10.00;99.90
27645;DHT22;15054;57.152;-2.118;2022-09-25T07:03:18;10.00;99.90
27645;DHT22;15054;57.152;-2.118;2022-09-25T07:06:05;10.00;99.90
27645;DHT22;15054;57.152;-2.118;2022-09-25T07:08:33;10.10;99.90
27645;DHT22;15054;57.152;-2.118;2022-09-25T07:11:01;10.10;99.90
27645;DHT22;15054;57.152;-2.118;2022-09-25T07:13:31;10.10;99.90
27645;DHT22;15054;57.152;-2.118;2022-09-25T07:16:00;10.10;99.90
27645;DHT22;15054;57.152;-2.118;2022-09-25T07:18:28;10.20;99.90
27645;DHT22;15054;57.152;-2.118;2022-09-25T07:21:07;10.20;99.90
27645;DHT22;15054;57.152;-2.118;2022-09-25T07:23:35;10.20;99.90
27645;DHT22;15054;57.152;-2.118;2022-09-25T07:26:08;10.20;99.90
27645;DHT22;15054;57.152;-2.118;2022-09-25T07:28:37;10.20;99.90
27645;DHT22;15054;57.152;-2.118;2022-09-25T07:33:42;10.20;99.90
27645;DHT22;15054;57.152;-2.118;2022-09-25T07:36:09;10.20;99.90
27645;DHT22;15054;57.152;-2.118;2022-09-25T07:38:38;10.30;99.90
27645;DHT22;15054;57.152;-2.118;2022-09-25T07:41:06;10.30;99.90
27645;DHT22;15054;57.152;-2.118;2022-09-25T07:43:34;10.30;99.90
27645;DHT22;15054;57.152;-2.118;2022-09-25T07:46:01;10.30;99.90
27645;DHT22;15054;57.152;-2.118;2022-09-25T07:48:29;10.40;99.90
27645;DHT22;15054;57.152;-2.118;2022-09-25T07:51:05;10.40;99.90
27645;DHT22;15054;57.152;-2.118;2022-09-25T07:53:33;10.40;99.90
27645;DHT22;15054;57.152;-2.118;2022-09-25T07:56:01;10.50;99.90
27645;DHT22;15054;57.152;-2.118;2022-09-25T07:58:33;10.50;99.90
27645;DHT22;15054;57.152;-2.118;2022-09-25T08:01:03;10.60;99.90
27645;DHT22;15054;57.152;-2.118;2022-09-25T08:03:31;10.60;99.90
27645;DHT22;15054;57.152;-2.118;2022-09-25T08:06:00;10.70;99.90
27645;DHT22;15054;57.152;-2.118;2022-09-25T08:08:28;10.70;99.90
27645;DHT22;15054;57.152;-2.118;2022-09-25T08:11:06;10.80;99.90
27645;DHT22;15054;57.152;-2.118;2022-09-25T08:13:34;10.80;99.90
27645;DHT22;15054;57.152;-2.118;2022-09-25T08:16:11;10.90;99.90
27645;DHT22;15054;57.152;-2.118;2022-09-25T08:18:40;10.90;99.90
27645;DHT22;15054;57.152;-2.118;2022-09-25T08:21:08;11.00;99.90
27645;DHT22;15054;57.152;-2.118;2022-09-25T08:23:36;11.00;99.90
27645;DHT22;15054;57.152;-2.118;2022-09-25T08:26:03;11.10;99.90
27645;DHT22;15054;57.152;-2.118;2022-09-25T08:28:30;11.10;99.90
27645;DHT22;15054;57.152;-2.118;2022-09-25T08:30:58;11.20;99.90
27645;DHT22;15054;57.152;-2.118;2022-09-25T08:33:26;11.20;99.90
27645;DHT22;15054;57.152;-2.118;2022-09-25T08:35:58;11.30;99.90
27645;DHT22;15054;57.152;-2.118;2022-09-25T08:38:25;11.30;99.90
27645;DHT22;15054;57.152;-2.118;2022-09-25T08:41:06;11.30;99.90
27645;DHT22;15054;57.152;-2.118;2022-09-25T08:43:40;11.40;99.90
27645;DHT22;15054;57.152;-2.118;2022-09-25T08:46:19;11.40;99.90
27645;DHT22;15054;57.152;-2.118;2022-09-25T08:49:07;11.40;99.90
27645;DHT22;15054;57.152;-2.118;2022-09-25T08:51:46;11.40;99.90
27645;DHT22;15054;57.152;-2.118;2022-09-25T08:54:27;11.30;99.90
27645;DHT22;15054;57.152;-2.118;2022-09-25T08:56:59;11.40;99.90
27645;DHT22;15054;57.152;-2.118;2022-09-25T08:59:34;11.40;99.90
27645;DHT22;15054;57.152;-2.118;2022-09-25T09:02:25;11.40;99.90
27645;DHT22;15054;57.152;-2.118;2022-09-25T09:04:56;11.60;99.90
27645;DHT22;15054;57.152;-2.118;2022-09-25T09:07:38;11.70;99.90
27645;DHT22;15054;57.152;-2.118;2022-09-25T09:10:22;12.00;99.90
27645;DHT22;15054;57.152;-2.118;2022-09-25T09:15:51;12.60;99.90
27645;DHT22;15054;57.152;-2.118;2022-09-25T09:18:24;12.90;99.90
27645;DHT22;15054;57.152;-2.118;2022-09-25T09:20:53;13.10;99.90
27645;DHT22;15054;57.152;-2.118;2022-09-25T09:23:23;13.30;99.90
27645;DHT22;15054;57.152;-2.118;2022-09-25T09:25:53;13.40;99.90
27645;DHT22;15054;57.152;-2.118;2022-09-25T09:28:41;13.50;99.90
27645;DHT22;15054;57.152;-2.118;2022-09-25T09:36:58;13.70;99.90
27645;DHT22;15054;57.152;-2.118;2022-09-25T09:45:19;13.80;99.90
27645;DHT22;15054;57.152;-2.118;2022-09-25T09:50:51;14.10;99.90
27645;DHT22;15054;57.152;-2.118;2022-09-25T09:53:40;14.30;99.90
27645;DHT22;15054;57.152;-2.118;2022-09-25T09:56:13;14.50;99.90
27645;DHT22;15054;57.152;-2.118;2022-09-25T09:59:00;14.60;99.90
27645;DHT22;15054;57.152;-2.118;2022-09-25T10:01:33;14.70;99.90
27645;DHT22;15054;57.152;-2.118;2022-09-25T10:04:16;14.70;99.90
27645;DHT22;15054;57.152;-2.118;2022-09-25T10:06:52;14.70;99.90
27645;DHT22;15054;57.152;-2.118;2022-09-25T10:09:21;14.70;99.90
27645;DHT22;15054;57.152;-2.118;2022-09-25T10:12:07;14.60;99.90
27645;DHT22;15054;57.152;-2.118;2022-09-25T10:14:41;14.50;99.90
27645;DHT22;15054;57.152;-2.118;2022-09-25T10:17:10;14.50;99.90
27645;DHT22;15054;57.152;-2.118;2022-09-25T10:20:11;14.40;99.90
27645;DHT22;15054;57.152;-2.118;2022-09-25T10:22:43;14.40;99.90
27645;DHT22;15054;57.152;-2.118;2022-09-25T10:25:11;14.30;99.90
27645;DHT22;15054;57.152;-2.118;2022-09-25T10:27:40;14.30;99.90
27645;DHT22;15054;57.152;-2.118;2022-09-25T10:30:19;14.20;99.90
27645;DHT22;15054;57.152;-2.118;2022-09-25T10:32:58;14.40;99.90
27645;DHT22;15054;57.152;-2.118;2022-09-25T10:37:59;15.30;99.90
27645;DHT22;15054;57.152;-2.118;2022-09-25T10:40:34;15.70;99.90
27645;DHT22;15054;57.152;-2.118;2022-09-25T10:43:19;15.90;99.90
27645;DHT22;15054;57.152;-2.118;2022-09-25T10:48:37;16.60;99.90
27645;DHT22;15054;57.152;-2.118;2022-09-25T10:51:23;16.70;99.90
27645;DHT22;15054;57.152;-2.118;2022-09-25T10:54:09;16.70;99.90
27645;DHT22;15054;57.152;-2.118;2022-09-25T10:56:37;16.60;99.90
27645;DHT22;15054;57.152;-2.118;2022-09-25T10:59:18;16.60;99.90
27645;DHT22;15054;57.152;-2.118;2022-09-25T11:01:47;16.70;99.90
27645;DHT22;15054;57.152;-2.118;2022-09-25T11:04:22;16.80;99.90
27645;DHT22;15054;57.152;-2.118;2022-09-25T11:06:56;16.90;99.90
27645;DHT22;15054;57.152;-2.118;2022-09-25T11:09:29;17.00;99.90
27645;DHT22;15054;57.152;-2.118;2022-09-25T11:12:13;16.90;99.90
27645;DHT22;15054;57.152;-2.118;2022-09-25T11:14:52;16.90;99.90
27645;DHT22;15054;57.152;-2.118;2022-09-25T11:17:38;16.80;99.90
27645;DHT22;15054;57.152;-2.118;2022-09-25T11:36:46;16.60;99.90
27645;DHT22;15054;57.152;-2.118;2022-09-25T11:39:22;16.60;99.90
27645;DHT22;15054;57.152;-2.118;2022-09-25T11:42:17;16.80;99.90
27645;DHT22;15054;57.152;-2.118;2022-09-25T11:45:09;16.90;99.90
27645;DHT22;15054;57.152;-2.118;2022-09-25T11:47:50;17.00;99.90
27645;DHT22;15054;57.152;-2.118;2022-09-25T11:50:23;16.90;99.90
27645;DHT22;15054;57.152;-2.118;2022-09-25T12:02:11;17.10;99.90
27645;DHT22;15054;57.152;-2.118;2022-09-25T12:08:17;17.00;99.90
27645;DHT22;15054;57.152;-2.118;2022-09-25T12:13:23;16.80;99.90
27645;DHT22;15054;57.152;-2.118;2022-09-25T12:16:16;16.70;99.90
27645;DHT22;15054;57.152;-2.118;2022-09-25T12:30:53;16.40;99.90
27645;DHT22;15054;57.152;-2.118;2022-09-25T12:33:31;16.30;99.90
27645;DHT22;15054;57.152;-2.118;2022-09-25T12:36:11;16.30;99.90
27645;DHT22;15054;57.152;-2.118;2022-09-25T12:39:03;16.30;99.90
27645;DHT22;15054;57.152;-2.118;2022-09-25T12:41:52;16.40;99.90
27645;DHT22;15054;57.152;-2.118;2022-09-25T12:47:33;16.30;99.90
27645;DHT22;15054;57.152;-2.118;2022-09-25T12:50:10;16.40;99.90
27645;DHT22;15054;57.152;-2.118;2022-09-25T12:52:51;16.40;99.90
27645;DHT22;15054;57.152;-2.118;2022-09-25T12:58:22;16.50;99.90
27645;DHT22;15054;57.152;-2.118;2022-09-25T13:06:56;16.70;99.90
27645;DHT22;15054;57.152;-2.118;2022-09-25T13:09:31;16.60;99.90
27645;DHT22;15054;57.152;-2.118;2022-09-25T13:14:57;16.40;99.90
27645;DHT22;15054;57.152;-2.118;2022-09-25T13:17:26;16.20;99.90
27645;DHT22;15054;57.152;-2.118;2022-09-25T13:19:53;16.10;99.90
27645;DHT22;15054;57.152;-2.118;2022-09-25T13:22:41;16.00;99.90
27645;DHT22;15054;57.152;-2.118;2022-09-25T13:25:12;15.90;99.90
27645;DHT22;15054;57.152;-2.118;2022-09-25T13:27:45;15.70;99.90
27645;DHT22;15054;57.152;-2.118;2022-09-25T13:30:20;15.70;99.90
27645;DHT22;15054;57.152;-2.118;2022-09-25T13:32:49;15.70;99.90
27645;DHT22;15054;57.152;-2.118;2022-09-25T13:35:20;15.60;99.90
27645;DHT22;15054;57.152;-2.118;2022-09-25T13:37:50;15.60;99.90
27645;DHT22;15054;57.152;-2.118;2022-09-25T13:40:23;15.50;99.90
27645;DHT22;15054;57.152;-2.118;2022-09-25T13:43:25;15.50;99.90
27645;DHT22;15054;57.152;-2.118;2022-09-25T13:48:40;15.40;99.90
27645;DHT22;15054;57.152;-2.118;2022-09-25T13:53:59;15.30;99.90
27645;DHT22;15054;57.152;-2.118;2022-09-25T14:01:47;15.10;99.90
27645;DHT22;15054;57.152;-2.118;2022-09-25T14:04:29;15.10;99.90
27645;DHT22;15054;57.152;-2.118;2022-09-25T14:07:16;15.10;99.90
27645;DHT22;15054;57.152;-2.118;2022-09-25T14:09:51;15.10;99.90
27645;DHT22;15054;57.152;-2.118;2022-09-25T14:12:37;15.20;99.90
27645;DHT22;15054;57.152;-2.118;2022-09-25T14:17:50;15.30;99.90
27645;DHT22;15054;57.152;-2.118;2022-09-25T14:20:29;15.30;99.90
27645;DHT22;15054;57.152;-2.118;2022-09-25T14:23:05;15.40;99.90
27645;DHT22;15054;57.152;-2.118;2022-09-25T14:25:36;15.40;99.90
27645;DHT22;15054;57.152;-2.118;2022-09-25T14:31:15;15.50;99.90
27645;DHT22;15054;57.152;-2.118;2022-09-25T14:47:42;15.50;99.90
27645;DHT22;15054;57.152;-2.118;2022-09-25T14:50:18;15.50;99.90
27645;DHT22;15054;57.152;-2.118;2022-09-25T14:52:47;15.50;99.90
27645;DHT22;15054;57.152;-2.118;2022-09-25T14:55:16;15.50;99.90
27645;DHT22;15054;57.152;-2.118;2022-09-25T14:57:47;15.40;99.90
27645;DHT22;15054;57.152;-2.118;2022-09-25T15:00:17;15.40;99.90
27645;DHT22;15054;57.152;-2.118;2022-09-25T15:02:46;15.40;99.90
27645;DHT22;15054;57.152;-2.118;2022-09-25T15:07:55;15.40;99.90
27645;DHT22;15054;57.152;-2.118;2022-09-25T15:10:34;15.40;99.90
27645;DHT22;15054;57.152;-2.118;2022-09-25T15:13:15;15.40;99.90
27645;DHT22;15054;57.152;-2.118;2022-09-25T15:15:56;15.40;99.90
27645;DHT22;15054;57.152;-2.118;2022-09-25T15:18:46;15.40;99.90
27645;DHT22;15054;57.152;-2.118;2022-09-25T15:21:30;15.40;99.90
27645;DHT22;15054;57.152;-2.118;2022-09-25T15:24:05;15.40;99.90
27645;DHT22;15054;57.152;-2.118;2022-09-25T15:26:40;15.30;99.90
27645;DHT22;15054;57.152;-2.118;2022-09-25T15:29:14;15.30;99.90
27645;DHT22;15054;57.152;-2.118;2022-09-25T15:31:44;15.30;99.90
27645;DHT22;15054;57.152;-2.118;2022-09-25T15:34:23;15.30;99.90
27645;DHT22;15054;57.152;-2.118;2022-09-25T15:36:51;15.20;99.90
27645;DHT22;15054;57.152;-2.118;2022-09-25T15:39:24;15.20;99.90
27645;DHT22;15054;57.152;-2.118;2022-09-25T15:41:51;15.20;99.90
27645;DHT22;15054;57.152;-2.118;2022-09-25T15:44:22;15.10;99.90
27645;DHT22;15054;57.152;-2.118;2022-09-25T15:46:55;15.10;99.90
27645;DHT22;15054;57.152;-2.118;2022-09-25T15:49:33;15.10;99.90
27645;DHT22;15054;57.152;-2.118;2022-09-25T15:52:16;15.00;99.90
27645;DHT22;15054;57.152;-2.118;2022-09-25T15:54:45;15.00;99.90
27645;DHT22;15054;57.152;-2.118;2022-09-25T15:57:22;15.00;99.90
27645;DHT22;15054;57.152;-2.118;2022-09-25T15:59:49;14.90;99.90
27645;DHT22;15054;57.152;-2.118;2022-09-25T16:02:38;14.90;99.90
27645;DHT22;15054;57.152;-2.118;2022-09-25T16:05:33;14.80;99.90
27645;DHT22;15054;57.152;-2.118;2022-09-25T16:13:29;14.60;99.90
27645;DHT22;15054;57.152;-2.118;2022-09-25T16:15:56;14.60;99.90
27645;DHT22;15054;57.152;-2.118;2022-09-25T16:18:37;14.40;99.90
27645;DHT22;15054;57.152;-2.118;2022-09-25T16:21:30;14.20;99.90
27645;DHT22;15054;57.152;-2.118;2022-09-25T16:24:04;13.90;99.90
27645;DHT22;15054;57.152;-2.118;2022-09-25T16:26:38;13.70;99.90
27645;DHT22;15054;57.152;-2.118;2022-09-25T16:31:39;13.30;99.90
27645;DHT22;15054;57.152;-2.118;2022-09-25T16:34:18;13.20;99.90
27645;DHT22;15054;57.152;-2.118;2022-09-25T16:36:53;13.10;99.90
27645;DHT22;15054;57.152;-2.118;2022-09-25T16:39:26;13.10;99.90
27645;DHT22;15054;57.152;-2.118;2022-09-25T16:41:54;13.00;99.90
27645;DHT22;15054;57.152;-2.118;2022-09-25T16:44:42;13.00;99.90
27645;DHT22;15054;57.152;-2.118;2022-09-25T16:47:17;12.90;99.90
27645;DHT22;15054;57.152;-2.118;2022-09-25T16:49:45;12.90;99.90
27645;DHT22;15054;57.152;-2.118;2022-09-25T16:52:17;12.90;99.90
27645;DHT22;15054;57.152;-2.118;2022-09-25T16:54:53;12.90;99.90
27645;DHT22;15054;57.152;-2.118;2022-09-25T16:57:22;12.90;99.90
27645;DHT22;15054;57.152;-2.118;2022-09-25T16:59:50;12.90;99.90
27645;DHT22;15054;57.152;-2.118;2022-09-25T17:02:33;12.90;99.90
27645;DHT22;15054;57.152;-2.118;2022-09-25T17:05:06;13.00;99.90
27645;DHT22;15054;57.152;-2.118;2022-09-25T17:07:35;13.00;99.90
27645;DHT22;15054;57.152;-2.118;2022-09-25T17:10:02;13.10;99.90
27645;DHT22;15054;57.152;-2.118;2022-09-25T17:12:30;13.00;99.90
27645;DHT22;15054;57.152;-2.118;2022-09-25T17:14:57;13.00;99.90
27645;DHT22;15054;57.152;-2.118;2022-09-25T17:17:25;12.90;99.90
27645;DHT22;15054;57.152;-2.118;2022-09-25T17:19:52;12.90;99.90
27645;DHT22;15054;57.152;-2.118;2022-09-25T17:22:19;12.70;99.90
27645;DHT22;15054;57.152;-2.118;2022-09-25T17:24:46;12.70;99.90
27645;DHT22;15054;57.152;-2.118;2022-09-25T17:27:14;12.60;99.90
27645;DHT22;15054;57.152;-2.118;2022-09-25T17:29:42;12.60;99.90
27645;DHT22;15054;57.152;-2.118;2022-09-25T17:32:13;12.50;99.90
27645;DHT22;15054;57.152;-2.118;2022-09-25T17:34:46;12.50;99.90
27645;DHT22;15054;57.152;-2.118;2022-09-25T17:37:13;12.40;99.90
27645;DHT22;15054;57.152;-2.118;2022-09-25T17:39:41;12.50;99.90
27645;DHT22;15054;57.152;-2.118;2022-09-25T17:42:09;12.50;99.90
27645;DHT22;15054;57.152;-2.118;2022-09-25T17:44:37;12.60;99.90
27645;DHT22;15054;57.152;-2.118;2022-09-25T17:47:09;12.60;99.90
27645;DHT22;15054;57.152;-2.118;2022-09-25T17:49:36;12.60;99.90
27645;DHT22;15054;57.152;-2.118;2022-09-25T17:52:03;12.50;99.90
27645;DHT22;15054;57.152;-2.118;2022-09-25T17:54:30;12.40;99.90
27645;DHT22;15054;57.152;-2.118;2022-09-25T17:56:57;12.30;99.90
27645;DHT22;15054;57.152;-2.118;2022-09-25T17:59:24;12.30;99.90
27645;DHT22;15054;57.152;-2.118;2022-09-25T18:01:52;12.20;99.90
27645;DHT22;15054;57.152;-2.118;2022-09-25T18:04:22;12.10;99.90
27645;DHT22;15054;57.152;-2.118;2022-09-25T18:06:50;12.00;99.90
27645;DHT22;15054;57.152;-2.118;2022-09-25T18:09:17;12.00;99.90
27645;DHT22;15054;57.152;-2.118;2022-09-25T18:11:45;11.90;99.90
27645;DHT22;15054;57.152;-2.118;2022-09-25T18:14:13;11.80;99.90
27645;DHT22;15054;57.152;-2.118;2022-09-25T18:16:42;11.80;99.90
27645;DHT22;15054;57.152;-2.118;2022-09-25T18:19:17;11.70;99.90
27645;DHT22;15054;57.152;-2.118;2022-09-25T18:22:03;11.60;99.90
27645;DHT22;15054;57.152;-2.118;2022-09-25T18:24:48;11.60;99.90
27645;DHT22;15054;57.152;-2.118;2022-09-25T18:27:20;11.50;99.90
27645;DHT22;15054;57.152;-2.118;2022-09-25T18:29:47;11.50;99.90
27645;DHT22;15054;57.152;-2.118;2022-09-25T18:32:14;11.50;99.90
27645;DHT22;15054;57.152;-2.118;2022-09-25T18:34:42;11.50;99.90
27645;DHT22;15054;57.152;-2.118;2022-09-25T18:37:09;11.50;99.90
27645;DHT22;15054;57.152;-2.118;2022-09-25T18:39:36;11.40;99.90